sensor_id;sensor_type;location;lat;lon;timestamp;P1;durP1;ratioP1;P2;durP2;ratioP2
1404;SDS011;697;51.114;6.542;2022-12-07T00:01:46;24.57;;;18.80;;
1404;SDS011;697;51.114;6.542;2022-12-07T00:04:14;23.70;;;18.77;;
1404;SDS011;697;51.114;6.542;2022-12-07T00:06:43;23.50;;;17.37;;
1404;SDS011;697;51.114;6.542;2022-12-07T00:09:11;22.63;;;18.40;;
1404;SDS011;697;51.114;6.542;2022-12-07T00:11:39;22.87;;;18.17;;
1404;SDS011;697;51.114;6.542;2022-12-07T00:14:10;23.93;;;18.07;;
1404;SDS011;697;51.114;6.542;2022-12-07T00:16:38;24.13;;;16.80;;
1404;SDS011;697;51.114;6.542;2022-12-07T00:19:08;20.70;;;16.50;;
1404;SDS011;697;51.114;6.542;2022-12-07T00:21:36;22.57;;;17.27;;
1404;SDS011;697;51.114;6.542;2022-12-07T00:24:03;24.50;;;18.03;;
1404;SDS011;697;51.114;6.542;2022-12-07T00:26:31;22.03;;;18.47;;
1404;SDS011;697;51.114;6.542;2022-12-07T00:29:00;25.30;;;20.00;;
1404;SDS011;697;51.114;6.542;2022-12-07T00:31:29;29.53;;;20.20;;
1404;SDS011;697;51.114;6.542;2022-12-07T00:33:58;26.50;;;19.20;;
1404;SDS011;697;51.114;6.542;2022-12-07T00:36:26;28.97;;;21.40;;
1404;SDS011;697;51.114;6.542;2022-12-07T00:38:54;36.93;;;22.90;;
1404;SDS011;697;51.114;6.542;2022-12-07T00:41:24;33.43;;;21.27;;
1404;SDS011;697;51.114;6.542;2022-12-07T00:43:54;33.10;;;21.03;;
1404;SDS011;697;51.114;6.542;2022-12-07T00:46:21;27.40;;;21.50;;
1404;SDS011;697;51.114;6.542;2022-12-07T00:48:48;31.93;;;24.83;;
1404;SDS011;697;51.114;6.542;2022-12-07T00:51:17;30.20;;;23.30;;
1404;SDS011;697;51.114;6.542;2022-12-07T00:53:46;32.90;;;25.57;;
1404;SDS011;697;51.114;6.542;2022-12-07T00:56:14;33.63;;;25.13;;
1404;SDS011;697;51.114;6.542;2022-12-07T00:58:42;31.30;;;24.60;;
1404;SDS011;697;51.114;6.542;2022-12-07T01:01:09;29.70;;;24.10;;
1404;SDS011;697;51.114;6.542;2022-12-07T01:03:37;32.80;;;26.37;;
1404;SDS011;697;51.114;6.542;2022-12-07T01:06:04;30.77;;;25.53;;
1404;SDS011;697;51.114;6.542;2022-12-07T01:08:31;33.13;;;24.50;;
1404;SDS011;697;51.114;6.542;2022-12-07T01:11:02;36.43;;;27.10;;
1404;SDS011;697;51.114;6.542;2022-12-07T01:13:30;34.67;;;25.13;;
1404;SDS011;697;51.114;6.542;2022-12-07T01:15:57;34.57;;;27.60;;
1404;SDS011;697;51.114;6.542;2022-12-07T01:18:27;34.73;;;25.43;;
1404;SDS011;697;51.114;6.542;2022-12-07T01:20:58;37.30;;;25.40;;
1404;SDS011;697;51.114;6.542;2022-12-07T01:23:26;32.70;;;26.80;;
1404;SDS011;697;51.114;6.542;2022-12-07T01:25:55;37.43;;;28.00;;
1404;SDS011;697;51.114;6.542;2022-12-07T01:28:24;32.80;;;25.57;;
1404;SDS011;697;51.114;6.542;2022-12-07T01:30:55;38.33;;;25.23;;
1404;SDS011;697;51.114;6.542;2022-12-07T01:33:22;35.37;;;23.80;;
1404;SDS011;697;51.114;6.542;2022-12-07T01:35:49;32.23;;;25.90;;
1404;SDS011;697;51.114;6.542;2022-12-07T01:38:16;35.37;;;26.57;;
1404;SDS011;697;51.114;6.542;2022-12-07T01:40:43;33.80;;;25.33;;
1404;SDS011;697;51.114;6.542;2022-12-07T01:43:13;31.97;;;27.00;;
1404;SDS011;697;51.114;6.542;2022-12-07T01:45:43;32.73;;;25.30;;
1404;SDS011;697;51.114;6.542;2022-12-07T01:48:10;33.30;;;26.80;;
1404;SDS011;697;51.114;6.542;2022-12-07T01:50:40;33.80;;;27.20;;
1404;SDS011;697;51.114;6.542;2022-12-07T01:53:09;41.07;;;28.20;;
1404;SDS011;697;51.114;6.542;2022-12-07T01:55:38;42.73;;;28.20;;
1404;SDS011;697;51.114;6.542;2022-12-07T01:58:09;33.10;;;25.87;;
1404;SDS011;697;51.114;6.542;2022-12-07T02:00:37;41.20;;;25.70;;
1404;SDS011;697;51.114;6.542;2022-12-07T02:03:06;30.17;;;25.97;;
1404;SDS011;697;51.114;6.542;2022-12-07T02:05:37;36.10;;;26.67;;
1404;SDS011;697;51.114;6.542;2022-12-07T02:08:06;38.40;;;28.37;;
1404;SDS011;697;51.114;6.542;2022-12-07T02:10:34;35.27;;;26.80;;
1404;SDS011;697;51.114;6.542;2022-12-07T02:13:01;40.00;;;27.63;;
1404;SDS011;697;51.114;6.542;2022-12-07T02:15:34;39.37;;;28.83;;
1404;SDS011;697;51.114;6.542;2022-12-07T02:18:13;43.87;;;30.70;;
1404;SDS011;697;51.114;6.542;2022-12-07T02:20:47;43.60;;;28.90;;
1404;SDS011;697;51.114;6.542;2022-12-07T02:23:29;37.17;;;29.10;;
1404;SDS011;697;51.114;6.542;2022-12-07T02:29:14;35.77;;;28.10;;
1404;SDS011;697;51.114;6.542;2022-12-07T02:31:50;42.40;;;29.47;;
1404;SDS011;697;51.114;6.542;2022-12-07T02:34:28;44.83;;;30.87;;
1404;SDS011;697;51.114;6.542;2022-12-07T02:37:00;40.67;;;29.63;;
1404;SDS011;697;51.114;6.542;2022-12-07T02:39:37;43.17;;;31.40;;
1404;SDS011;697;51.114;6.542;2022-12-07T02:42:10;48.70;;;32.77;;
1404;SDS011;697;51.114;6.542;2022-12-07T02:44:42;41.43;;;30.63;;
1404;SDS011;697;51.114;6.542;2022-12-07T02:47:12;44.37;;;31.00;;
1404;SDS011;697;51.114;6.542;2022-12-07T02:49:42;44.97;;;32.77;;
1404;SDS011;697;51.114;6.542;2022-12-07T02:52:10;39.93;;;30.30;;
1404;SDS011;697;51.114;6.542;2022-12-07T02:54:37;45.13;;;31.33;;
1404;SDS011;697;51.114;6.542;2022-12-07T02:57:08;45.60;;;31.63;;
1404;SDS011;697;51.114;6.542;2022-12-07T02:59:53;48.37;;;31.07;;
1404;SDS011;697;51.114;6.542;2022-12-07T03:02:28;40.07;;;30.57;;
1404;SDS011;697;51.114;6.542;2022-12-07T03:05:06;43.40;;;32.80;;
1404;SDS011;697;51.114;6.542;2022-12-07T03:07:43;45.93;;;34.30;;
1404;SDS011;697;51.114;6.542;2022-12-07T03:10:17;48.77;;;36.03;;
1404;SDS011;697;51.114;6.542;2022-12-07T03:12:49;46.63;;;33.50;;
1404;SDS011;697;51.114;6.542;2022-12-07T03:15:26;53.27;;;35.30;;
1404;SDS011;697;51.114;6.542;2022-12-07T03:17:57;51.97;;;34.90;;
1404;SDS011;697;51.114;6.542;2022-12-07T03:20:26;46.30;;;35.77;;
1404;SDS011;697;51.114;6.542;2022-12-07T03:22:57;44.37;;;33.73;;
1404;SDS011;697;51.114;6.542;2022-12-07T03:25:25;49.10;;;34.87;;
1404;SDS011;697;51.114;6.542;2022-12-07T03:27:55;45.77;;;34.20;;
1404;SDS011;697;51.114;6.542;2022-12-07T03:30:28;49.17;;;33.70;;
1404;SDS011;697;51.114;6.542;2022-12-07T03:32:59;50.83;;;34.03;;
1404;SDS011;697;51.114;6.542;2022-12-07T03:35:31;49.53;;;34.20;;
1404;SDS011;697;51.114;6.542;2022-12-07T03:38:02;43.87;;;33.20;;
1404;SDS011;697;51.114;6.542;2022-12-07T03:40:40;45.40;;;32.37;;
1404;SDS011;697;51.114;6.542;2022-12-07T03:43:10;43.90;;;31.87;;
1404;SDS011;697;51.114;6.542;2022-12-07T03:45:39;50.80;;;33.10;;
1404;SDS011;697;51.114;6.542;2022-12-07T03:48:08;44.07;;;30.67;;
1404;SDS011;697;51.114;6.542;2022-12-07T03:50:48;44.10;;;31.80;;
1404;SDS011;697;51.114;6.542;2022-12-07T03:53:19;44.47;;;32.73;;
1404;SDS011;697;51.114;6.542;2022-12-07T03:55:51;46.10;;;31.97;;
1404;SDS011;697;51.114;6.542;2022-12-07T03:58:20;40.87;;;31.67;;
1404;SDS011;697;51.114;6.542;2022-12-07T04:00:50;45.23;;;32.70;;
1404;SDS011;697;51.114;6.542;2022-12-07T04:03:17;41.13;;;32.90;;
1404;SDS011;697;51.114;6.542;2022-12-07T04:05:46;39.40;;;29.90;;
1404;SDS011;697;51.114;6.542;2022-12-07T04:08:13;36.50;;;29.97;;
1404;SDS011;697;51.114;6.542;2022-12-07T04:10:40;41.30;;;29.80;;
1404;SDS011;697;51.114;6.542;2022-12-07T04:13:09;37.10;;;28.87;;
1404;SDS011;697;51.114;6.542;2022-12-07T04:15:35;42.47;;;31.33;;
1404;SDS011;697;51.114;6.542;2022-12-07T04:18:03;43.13;;;31.00;;
1404;SDS011;697;51.114;6.542;2022-12-07T04:20:30;38.00;;;30.33;;
1404;SDS011;697;51.114;6.542;2022-12-07T04:22:57;36.23;;;29.10;;
1404;SDS011;697;51.114;6.542;2022-12-07T04:25:23;37.97;;;30.37;;
1404;SDS011;697;51.114;6.542;2022-12-07T04:27:50;41.27;;;29.47;;
1404;SDS011;697;51.114;6.542;2022-12-07T04:30:18;36.43;;;29.27;;
1404;SDS011;697;51.114;6.542;2022-12-07T04:32:45;38.57;;;29.27;;
1404;SDS011;697;51.114;6.542;2022-12-07T04:35:13;41.50;;;28.40;;
1404;SDS011;697;51.114;6.542;2022-12-07T04:37:41;34.80;;;28.53;;
1404;SDS011;697;51.114;6.542;2022-12-07T04:40:08;39.60;;;31.70;;
1404;SDS011;697;51.114;6.542;2022-12-07T04:42:36;37.00;;;29.60;;
1404;SDS011;697;51.114;6.542;2022-12-07T04:45:03;40.23;;;30.77;;
1404;SDS011;697;51.114;6.542;2022-12-07T04:47:30;35.40;;;28.07;;
1404;SDS011;697;51.114;6.542;2022-12-07T04:49:57;36.70;;;29.47;;
1404;SDS011;697;51.114;6.542;2022-12-07T04:52:25;35.83;;;27.97;;
1404;SDS011;697;51.114;6.542;2022-12-07T04:54:52;35.80;;;29.17;;
1404;SDS011;697;51.114;6.542;2022-12-07T04:57:19;32.53;;;27.77;;
1404;SDS011;697;51.114;6.542;2022-12-07T04:59:46;40.30;;;30.50;;
1404;SDS011;697;51.114;6.542;2022-12-07T05:02:12;37.57;;;29.67;;
1404;SDS011;697;51.114;6.542;2022-12-07T05:04:39;40.63;;;29.97;;
1404;SDS011;697;51.114;6.542;2022-12-07T05:07:11;37.50;;;28.90;;
1404;SDS011;697;51.114;6.542;2022-12-07T05:09:39;39.03;;;30.13;;
1404;SDS011;697;51.114;6.542;2022-12-07T05:12:06;39.40;;;30.47;;
1404;SDS011;697;51.114;6.542;2022-12-07T05:14:32;33.53;;;26.37;;
1404;SDS011;697;51.114;6.542;2022-12-07T05:16:59;36.00;;;27.87;;
1404;SDS011;697;51.114;6.542;2022-12-07T05:19:26;33.20;;;27.63;;
1404;SDS011;697;51.114;6.542;2022-12-07T05:21:52;34.77;;;27.33;;
1404;SDS011;697;51.114;6.542;2022-12-07T05:24:19;33.90;;;27.83;;
1404;SDS011;697;51.114;6.542;2022-12-07T05:26:47;32.60;;;26.60;;
1404;SDS011;697;51.114;6.542;2022-12-07T05:29:15;33.50;;;25.33;;
1404;SDS011;697;51.114;6.542;2022-12-07T05:31:42;30.20;;;25.53;;
1404;SDS011;697;51.114;6.542;2022-12-07T05:34:10;37.37;;;26.13;;
1404;SDS011;697;51.114;6.542;2022-12-07T05:36:37;29.03;;;25.03;;
1404;SDS011;697;51.114;6.542;2022-12-07T05:39:03;34.70;;;25.10;;
1404;SDS011;697;51.114;6.542;2022-12-07T05:41:31;30.37;;;23.87;;
1404;SDS011;697;51.114;6.542;2022-12-07T05:44:17;26.73;;;23.23;;
1404;SDS011;697;51.114;6.542;2022-12-07T05:46:44;29.20;;;22.50;;
1404;SDS011;697;51.114;6.542;2022-12-07T05:49:10;31.23;;;23.07;;
1404;SDS011;697;51.114;6.542;2022-12-07T05:51:37;28.63;;;22.40;;
1404;SDS011;697;51.114;6.542;2022-12-07T05:54:04;27.07;;;23.03;;
1404;SDS011;697;51.114;6.542;2022-12-07T05:56:30;27.07;;;21.80;;
1404;SDS011;697;51.114;6.542;2022-12-07T05:58:57;30.53;;;23.80;;
1404;SDS011;697;51.114;6.542;2022-12-07T06:01:43;30.47;;;22.63;;
1404;SDS011;697;51.114;6.542;2022-12-07T06:04:10;33.10;;;24.10;;
1404;SDS011;697;51.114;6.542;2022-12-07T06:06:36;35.40;;;24.73;;
1404;SDS011;697;51.114;6.542;2022-12-07T06:09:03;36.80;;;25.03;;
1404;SDS011;697;51.114;6.542;2022-12-07T06:11:30;38.83;;;26.97;;
1404;SDS011;697;51.114;6.542;2022-12-07T06:14:16;34.60;;;25.80;;
1404;SDS011;697;51.114;6.542;2022-12-07T06:16:44;35.80;;;24.90;;
1404;SDS011;697;51.114;6.542;2022-12-07T06:19:11;33.17;;;24.50;;
1404;SDS011;697;51.114;6.542;2022-12-07T06:21:38;31.07;;;23.33;;
1404;SDS011;697;51.114;6.542;2022-12-07T06:24:05;33.63;;;24.90;;
1404;SDS011;697;51.114;6.542;2022-12-07T06:26:32;37.03;;;24.17;;
1404;SDS011;697;51.114;6.542;2022-12-07T06:28:58;33.60;;;25.40;;
1404;SDS011;697;51.114;6.542;2022-12-07T06:31:25;25.43;;;22.00;;
1404;SDS011;697;51.114;6.542;2022-12-07T06:33:57;31.90;;;22.50;;
1404;SDS011;697;51.114;6.542;2022-12-07T06:36:24;27.30;;;23.00;;
1404;SDS011;697;51.114;6.542;2022-12-07T06:38:51;30.97;;;21.47;;
1404;SDS011;697;51.114;6.542;2022-12-07T06:41:18;31.23;;;22.10;;
1404;SDS011;697;51.114;6.542;2022-12-07T06:43:45;28.60;;;23.10;;
1404;SDS011;697;51.114;6.542;2022-12-07T06:46:12;26.40;;;21.10;;
1404;SDS011;697;51.114;6.542;2022-12-07T06:48:42;27.97;;;20.43;;
1404;SDS011;697;51.114;6.542;2022-12-07T06:51:11;25.27;;;21.27;;
1404;SDS011;697;51.114;6.542;2022-12-07T06:53:38;26.00;;;21.50;;
1404;SDS011;697;51.114;6.542;2022-12-07T06:56:06;26.83;;;20.33;;
1404;SDS011;697;51.114;6.542;2022-12-07T06:58:33;26.87;;;20.13;;
1404;SDS011;697;51.114;6.542;2022-12-07T07:01:00;26.90;;;20.23;;
1404;SDS011;697;51.114;6.542;2022-12-07T07:03:26;22.80;;;19.30;;
1404;SDS011;697;51.114;6.542;2022-12-07T07:05:53;24.30;;;20.30;;
1404;SDS011;697;51.114;6.542;2022-12-07T07:08:22;26.67;;;18.20;;
1404;SDS011;697;51.114;6.542;2022-12-07T07:10:48;22.40;;;18.97;;
1404;SDS011;697;51.114;6.542;2022-12-07T07:13:15;20.20;;;16.40;;
1404;SDS011;697;51.114;6.542;2022-12-07T07:15:42;21.00;;;17.30;;
1404;SDS011;697;51.114;6.542;2022-12-07T07:18:09;18.87;;;16.90;;
1404;SDS011;697;51.114;6.542;2022-12-07T07:20:36;22.30;;;16.77;;
1404;SDS011;697;51.114;6.542;2022-12-07T07:23:03;25.77;;;17.07;;
1404;SDS011;697;51.114;6.542;2022-12-07T07:25:31;19.17;;;16.10;;
1404;SDS011;697;51.114;6.542;2022-12-07T07:27:58;19.50;;;16.23;;
1404;SDS011;697;51.114;6.542;2022-12-07T07:30:24;18.93;;;15.47;;
1404;SDS011;697;51.114;6.542;2022-12-07T07:32:51;17.47;;;15.70;;
1404;SDS011;697;51.114;6.542;2022-12-07T07:35:22;19.27;;;15.80;;
1404;SDS011;697;51.114;6.542;2022-12-07T07:37:49;16.53;;;14.93;;
1404;SDS011;697;51.114;6.542;2022-12-07T07:40:15;17.03;;;15.00;;
1404;SDS011;697;51.114;6.542;2022-12-07T07:42:46;22.80;;;16.77;;
1404;SDS011;697;51.114;6.542;2022-12-07T07:45:14;20.40;;;15.90;;
1404;SDS011;697;51.114;6.542;2022-12-07T07:47:41;22.97;;;16.50;;
1404;SDS011;697;51.114;6.542;2022-12-07T07:50:08;21.67;;;18.33;;
1404;SDS011;697;51.114;6.542;2022-12-07T07:52:35;24.77;;;19.70;;
1404;SDS011;697;51.114;6.542;2022-12-07T07:55:02;26.20;;;18.97;;
1404;SDS011;697;51.114;6.542;2022-12-07T07:57:30;24.33;;;20.57;;
1404;SDS011;697;51.114;6.542;2022-12-07T07:59:58;25.00;;;19.20;;
1404;SDS011;697;51.114;6.542;2022-12-07T08:02:24;24.67;;;19.93;;
1404;SDS011;697;51.114;6.542;2022-12-07T08:04:54;25.27;;;19.17;;
1404;SDS011;697;51.114;6.542;2022-12-07T08:07:21;23.73;;;20.70;;
1404;SDS011;697;51.114;6.542;2022-12-07T08:09:48;23.20;;;19.43;;
1404;SDS011;697;51.114;6.542;2022-12-07T08:12:14;41.30;;;21.17;;
1404;SDS011;697;51.114;6.542;2022-12-07T08:14:41;28.80;;;21.93;;
1404;SDS011;697;51.114;6.542;2022-12-07T08:17:09;23.77;;;19.80;;
1404;SDS011;697;51.114;6.542;2022-12-07T08:19:36;24.60;;;20.80;;
1404;SDS011;697;51.114;6.542;2022-12-07T08:22:02;24.93;;;19.70;;
1404;SDS011;697;51.114;6.542;2022-12-07T08:24:29;27.20;;;21.67;;
1404;SDS011;697;51.114;6.542;2022-12-07T08:26:56;26.87;;;23.17;;
1404;SDS011;697;51.114;6.542;2022-12-07T08:29:22;28.57;;;23.50;;
1404;SDS011;697;51.114;6.542;2022-12-07T08:31:49;27.00;;;20.40;;
1404;SDS011;697;51.114;6.542;2022-12-07T08:34:17;30.70;;;23.17;;
1404;SDS011;697;51.114;6.542;2022-12-07T08:36:44;24.80;;;21.77;;
1404;SDS011;697;51.114;6.542;2022-12-07T08:39:10;25.30;;;20.60;;
1404;SDS011;697;51.114;6.542;2022-12-07T08:41:37;23.87;;;19.77;;
1404;SDS011;697;51.114;6.542;2022-12-07T08:44:04;26.40;;;22.70;;
1404;SDS011;697;51.114;6.542;2022-12-07T08:46:32;29.50;;;21.83;;
1404;SDS011;697;51.114;6.542;2022-12-07T08:49:03;29.10;;;23.53;;
1404;SDS011;697;51.114;6.542;2022-12-07T08:51:35;27.43;;;23.60;;
1404;SDS011;697;51.114;6.542;2022-12-07T08:54:03;26.60;;;20.50;;
1404;SDS011;697;51.114;6.542;2022-12-07T08:56:32;27.37;;;21.03;;
1404;SDS011;697;51.114;6.542;2022-12-07T08:58:59;25.70;;;20.23;;
1404;SDS011;697;51.114;6.542;2022-12-07T09:01:26;25.80;;;19.40;;
1404;SDS011;697;51.114;6.542;2022-12-07T09:03:53;22.03;;;18.13;;
1404;SDS011;697;51.114;6.542;2022-12-07T09:06:20;22.17;;;19.77;;
1404;SDS011;697;51.114;6.542;2022-12-07T09:08:49;26.30;;;18.40;;
1404;SDS011;697;51.114;6.542;2022-12-07T09:11:18;30.50;;;18.50;;
1404;SDS011;697;51.114;6.542;2022-12-07T09:13:45;22.27;;;18.40;;
1404;SDS011;697;51.114;6.542;2022-12-07T09:16:11;22.70;;;18.90;;
1404;SDS011;697;51.114;6.542;2022-12-07T09:18:38;23.10;;;17.67;;
1404;SDS011;697;51.114;6.542;2022-12-07T09:21:05;25.13;;;16.97;;
1404;SDS011;697;51.114;6.542;2022-12-07T09:23:31;25.63;;;18.13;;
1404;SDS011;697;51.114;6.542;2022-12-07T09:26:00;23.87;;;17.80;;
1404;SDS011;697;51.114;6.542;2022-12-07T09:28:27;19.63;;;17.53;;
1404;SDS011;697;51.114;6.542;2022-12-07T09:30:54;23.37;;;19.27;;
1404;SDS011;697;51.114;6.542;2022-12-07T09:33:21;22.83;;;17.53;;
1404;SDS011;697;51.114;6.542;2022-12-07T09:35:48;26.37;;;17.47;;
1404;SDS011;697;51.114;6.542;2022-12-07T09:38:16;32.00;;;17.53;;
1404;SDS011;697;51.114;6.542;2022-12-07T09:40:43;24.70;;;18.57;;
1404;SDS011;697;51.114;6.542;2022-12-07T09:43:13;24.23;;;17.97;;
1404;SDS011;697;51.114;6.542;2022-12-07T09:45:42;21.70;;;17.30;;
1404;SDS011;697;51.114;6.542;2022-12-07T09:48:13;18.37;;;15.97;;
1404;SDS011;697;51.114;6.542;2022-12-07T09:50:44;19.60;;;15.97;;
1404;SDS011;697;51.114;6.542;2022-12-07T09:53:13;19.40;;;15.67;;
1404;SDS011;697;51.114;6.542;2022-12-07T09:55:43;21.10;;;16.17;;
1404;SDS011;697;51.114;6.542;2022-12-07T09:58:13;20.30;;;17.00;;
1404;SDS011;697;51.114;6.542;2022-12-07T10:00:46;23.63;;;15.93;;
1404;SDS011;697;51.114;6.542;2022-12-07T10:03:13;27.40;;;16.67;;
1404;SDS011;697;51.114;6.542;2022-12-07T10:05:40;21.23;;;16.80;;
1404;SDS011;697;51.114;6.542;2022-12-07T10:08:10;20.00;;;14.30;;
1404;SDS011;697;51.114;6.542;2022-12-07T10:10:38;20.73;;;16.60;;
1404;SDS011;697;51.114;6.542;2022-12-07T10:13:05;24.80;;;15.93;;
1404;SDS011;697;51.114;6.542;2022-12-07T10:15:48;19.13;;;14.03;;
1404;SDS011;697;51.114;6.542;2022-12-07T10:21:10;19.97;;;15.60;;
1404;SDS011;697;51.114;6.542;2022-12-07T10:23:39;19.83;;;14.50;;
1404;SDS011;697;51.114;6.542;2022-12-07T10:26:19;22.20;;;14.67;;
1404;SDS011;697;51.114;6.542;2022-12-07T10:28:52;16.70;;;14.67;;
1404;SDS011;697;51.114;6.542;2022-12-07T10:31:20;15.17;;;13.03;;
1404;SDS011;697;51.114;6.542;2022-12-07T10:33:49;23.20;;;15.20;;
1404;SDS011;697;51.114;6.542;2022-12-07T10:36:19;19.50;;;13.57;;
1404;SDS011;697;51.114;6.542;2022-12-07T10:38:48;15.63;;;13.50;;
1404;SDS011;697;51.114;6.542;2022-12-07T10:41:17;21.30;;;14.20;;
1404;SDS011;697;51.114;6.542;2022-12-07T10:43:47;15.67;;;13.40;;
1404;SDS011;697;51.114;6.542;2022-12-07T10:46:29;21.67;;;13.80;;
1404;SDS011;697;51.114;6.542;2022-12-07T10:49:26;19.17;;;14.30;;
1404;SDS011;697;51.114;6.542;2022-12-07T10:52:13;21.57;;;14.80;;
1404;SDS011;697;51.114;6.542;2022-12-07T10:54:49;18.07;;;12.50;;
1404;SDS011;697;51.114;6.542;2022-12-07T10:57:30;18.37;;;12.67;;
1404;SDS011;697;51.114;6.542;2022-12-07T11:00:11;21.90;;;15.53;;
1404;SDS011;697;51.114;6.542;2022-12-07T11:05:52;16.63;;;13.60;;
1404;SDS011;697;51.114;6.542;2022-12-07T11:08:27;18.30;;;13.70;;
1404;SDS011;697;51.114;6.542;2022-12-07T11:11:06;21.77;;;15.20;;
1404;SDS011;697;51.114;6.542;2022-12-07T11:13:40;23.03;;;14.83;;
1404;SDS011;697;51.114;6.542;2022-12-07T11:16:19;19.07;;;14.50;;
1404;SDS011;697;51.114;6.542;2022-12-07T11:19:11;20.23;;;16.60;;
1404;SDS011;697;51.114;6.542;2022-12-07T11:21:51;21.00;;;14.80;;
1404;SDS011;697;51.114;6.542;2022-12-07T11:24:24;22.90;;;15.23;;
1404;SDS011;697;51.114;6.542;2022-12-07T11:27:02;23.80;;;15.10;;
1404;SDS011;697;51.114;6.542;2022-12-07T11:29:40;16.47;;;14.57;;
1404;SDS011;697;51.114;6.542;2022-12-07T11:32:16;19.23;;;14.90;;
1404;SDS011;697;51.114;6.542;2022-12-07T11:34:50;16.80;;;14.03;;
1404;SDS011;697;51.114;6.542;2022-12-07T11:37:31;22.87;;;15.17;;
1404;SDS011;697;51.114;6.542;2022-12-07T11:40:00;24.23;;;14.90;;
1404;SDS011;697;51.114;6.542;2022-12-07T11:42:33;24.23;;;12.17;;
1404;SDS011;697;51.114;6.542;2022-12-07T11:45:10;15.00;;;12.47;;
1404;SDS011;697;51.114;6.542;2022-12-07T11:47:43;14.47;;;10.90;;
1404;SDS011;697;51.114;6.542;2022-12-07T11:52:51;19.87;;;11.40;;
1404;SDS011;697;51.114;6.542;2022-12-07T11:55:21;11.47;;;10.27;;
1404;SDS011;697;51.114;6.542;2022-12-07T11:57:56;14.93;;;9.67;;
1404;SDS011;697;51.114;6.542;2022-12-07T12:00:29;11.13;;;9.20;;
1404;SDS011;697;51.114;6.542;2022-12-07T12:02:57;12.57;;;10.10;;
1404;SDS011;697;51.114;6.542;2022-12-07T12:05:27;13.67;;;9.10;;
1404;SDS011;697;51.114;6.542;2022-12-07T12:07:58;15.60;;;9.23;;
1404;SDS011;697;51.114;6.542;2022-12-07T12:10:33;15.33;;;9.50;;
1404;SDS011;697;51.114;6.542;2022-12-07T12:13:19;12.03;;;8.10;;
1404;SDS011;697;51.114;6.542;2022-12-07T12:16:13;15.63;;;9.13;;
1404;SDS011;697;51.114;6.542;2022-12-07T12:19:04;11.20;;;9.10;;
1404;SDS011;697;51.114;6.542;2022-12-07T12:21:44;13.53;;;8.60;;
1404;SDS011;697;51.114;6.542;2022-12-07T12:24:16;9.83;;;8.37;;
1404;SDS011;697;51.114;6.542;2022-12-07T12:26:48;12.20;;;7.30;;
1404;SDS011;697;51.114;6.542;2022-12-07T12:29:19;15.57;;;9.03;;
1404;SDS011;697;51.114;6.542;2022-12-07T12:32:04;14.97;;;8.60;;
1404;SDS011;697;51.114;6.542;2022-12-07T12:34:37;13.17;;;8.87;;
1404;SDS011;697;51.114;6.542;2022-12-07T12:37:14;10.73;;;8.70;;
1404;SDS011;697;51.114;6.542;2022-12-07T12:55:16;15.30;;;9.10;;
1404;SDS011;697;51.114;6.542;2022-12-07T13:03:58;11.80;;;8.50;;
1404;SDS011;697;51.114;6.542;2022-12-07T13:06:32;13.53;;;7.83;;
1404;SDS011;697;51.114;6.542;2022-12-07T13:09:03;10.30;;;8.00;;
1404;SDS011;697;51.114;6.542;2022-12-07T13:11:32;14.37;;;7.87;;
1404;SDS011;697;51.114;6.542;2022-12-07T13:23:16;9.83;;;7.20;;
1404;SDS011;697;51.114;6.542;2022-12-07T13:26:15;11.23;;;7.50;;
1404;SDS011;697;51.114;6.542;2022-12-07T13:28:45;12.37;;;8.00;;
1404;SDS011;697;51.114;6.542;2022-12-07T13:31:19;10.83;;;7.47;;
1404;SDS011;697;51.114;6.542;2022-12-07T13:33:53;13.13;;;8.00;;
1404;SDS011;697;51.114;6.542;2022-12-07T13:36:21;13.60;;;8.10;;
1404;SDS011;697;51.114;6.542;2022-12-07T13:38:51;11.97;;;8.00;;
1404;SDS011;697;51.114;6.542;2022-12-07T13:41:20;16.77;;;8.00;;
1404;SDS011;697;51.114;6.542;2022-12-07T13:43:50;12.30;;;7.37;;
1404;SDS011;697;51.114;6.542;2022-12-07T13:46:22;11.43;;;8.50;;
1404;SDS011;697;51.114;6.542;2022-12-07T13:48:57;11.80;;;7.70;;
1404;SDS011;697;51.114;6.542;2022-12-07T13:51:24;10.87;;;7.00;;
1404;SDS011;697;51.114;6.542;2022-12-07T13:53:53;11.77;;;6.23;;
1404;SDS011;697;51.114;6.542;2022-12-07T13:56:22;10.20;;;6.90;;
1404;SDS011;697;51.114;6.542;2022-12-07T13:58:55;9.77;;;6.10;;
1404;SDS011;697;51.114;6.542;2022-12-07T14:01:23;10.87;;;7.27;;
1404;SDS011;697;51.114;6.542;2022-12-07T14:03:51;12.40;;;7.17;;
1404;SDS011;697;51.114;6.542;2022-12-07T14:06:20;14.57;;;7.83;;
1404;SDS011;697;51.114;6.542;2022-12-07T14:09:05;10.83;;;7.00;;
1404;SDS011;697;51.114;6.542;2022-12-07T14:11:33;9.63;;;7.07;;
1404;SDS011;697;51.114;6.542;2022-12-07T14:14:02;10.40;;;8.00;;
1404;SDS011;697;51.114;6.542;2022-12-07T14:16:30;9.27;;;7.90;;
1404;SDS011;697;51.114;6.542;2022-12-07T14:19:00;9.83;;;6.87;;
1404;SDS011;697;51.114;6.542;2022-12-07T14:21:28;11.17;;;7.07;;
1404;SDS011;697;51.114;6.542;2022-12-07T14:26:46;8.27;;;5.40;;
1404;SDS011;697;51.114;6.542;2022-12-07T14:29:32;8.20;;;5.97;;
1404;SDS011;697;51.114;6.542;2022-12-07T14:32:24;11.23;;;8.30;;
1404;SDS011;697;51.114;6.542;2022-12-07T14:34:55;13.60;;;6.80;;
1404;SDS011;697;51.114;6.542;2022-12-07T14:37:25;10.00;;;6.30;;
1404;SDS011;697;51.114;6.542;2022-12-07T14:39:52;6.40;;;4.30;;
1404;SDS011;697;51.114;6.542;2022-12-07T14:42:19;4.63;;;3.40;;
1404;SDS011;697;51.114;6.542;2022-12-07T14:44:50;10.40;;;3.87;;
1404;SDS011;697;51.114;6.542;2022-12-07T14:47:16;5.27;;;3.40;;
1404;SDS011;697;51.114;6.542;2022-12-07T14:49:43;5.37;;;3.40;;
1404;SDS011;697;51.114;6.542;2022-12-07T14:52:12;7.77;;;3.80;;
1404;SDS011;697;51.114;6.542;2022-12-07T14:54:42;6.47;;;3.50;;
1404;SDS011;697;51.114;6.542;2022-12-07T14:57:09;9.93;;;3.73;;
1404;SDS011;697;51.114;6.542;2022-12-07T14:59:37;5.80;;;3.80;;
1404;SDS011;697;51.114;6.542;2022-12-07T15:02:08;6.37;;;3.43;;
1404;SDS011;697;51.114;6.542;2022-12-07T15:04:37;6.87;;;3.33;;
1404;SDS011;697;51.114;6.542;2022-12-07T15:07:04;5.50;;;4.03;;
1404;SDS011;697;51.114;6.542;2022-12-07T15:09:35;4.90;;;3.33;;
1404;SDS011;697;51.114;6.542;2022-12-07T15:12:01;5.60;;;3.83;;
1404;SDS011;697;51.114;6.542;2022-12-07T15:14:28;6.37;;;4.03;;
1404;SDS011;697;51.114;6.542;2022-12-07T15:16:55;6.13;;;3.60;;
1404;SDS011;697;51.114;6.542;2022-12-07T15:19:23;6.93;;;4.03;;
1404;SDS011;697;51.114;6.542;2022-12-07T15:21:51;7.63;;;3.87;;
1404;SDS011;697;51.114;6.542;2022-12-07T15:24:19;7.83;;;4.73;;
1404;SDS011;697;51.114;6.542;2022-12-07T15:26:46;5.70;;;4.33;;
1404;SDS011;697;51.114;6.542;2022-12-07T15:29:13;8.70;;;4.50;;
1404;SDS011;697;51.114;6.542;2022-12-07T15:31:41;4.90;;;4.33;;
1404;SDS011;697;51.114;6.542;2022-12-07T15:34:08;5.17;;;4.67;;
1404;SDS011;697;51.114;6.542;2022-12-07T15:36:36;8.17;;;5.57;;
1404;SDS011;697;51.114;6.542;2022-12-07T15:39:03;7.20;;;6.20;;
1404;SDS011;697;51.114;6.542;2022-12-07T15:41:29;8.03;;;6.80;;
1404;SDS011;697;51.114;6.542;2022-12-07T15:43:56;10.47;;;7.07;;
1404;SDS011;697;51.114;6.542;2022-12-07T15:46:41;7.87;;;6.90;;
1404;SDS011;697;51.114;6.542;2022-12-07T15:49:09;8.37;;;7.57;;
1404;SDS011;697;51.114;6.542;2022-12-07T15:51:39;9.13;;;6.47;;
1404;SDS011;697;51.114;6.542;2022-12-07T15:54:07;8.90;;;6.50;;
1404;SDS011;697;51.114;6.542;2022-12-07T15:56:34;8.30;;;7.50;;
1404;SDS011;697;51.114;6.542;2022-12-07T15:59:01;10.27;;;8.30;;
1404;SDS011;697;51.114;6.542;2022-12-07T16:01:28;10.10;;;8.10;;
1404;SDS011;697;51.114;6.542;2022-12-07T16:03:54;11.53;;;8.10;;
1404;SDS011;697;51.114;6.542;2022-12-07T16:06:24;11.07;;;7.30;;
1404;SDS011;697;51.114;6.542;2022-12-07T16:08:52;15.03;;;9.37;;